createdAt,value
2023-05-21T00:00:08.469Z,10.32
2023-05-21T00:02:40.168Z,12.23
2023-05-21T00:05:13.765Z,11.95
2023-05-21T00:07:41.756Z,11.23
2023-05-21T00:10:09.214Z,9.77
2023-05-21T00:12:36.245Z,12.40
2023-05-21T00:15:03.483Z,11.25
2023-05-21T00:17:31.580Z,14.60
2023-05-21T00:19:59.047Z,12.40
2023-05-21T00:22:26.074Z,8.95
2023-05-21T00:24:52.978Z,12.43
2023-05-21T00:27:19.979Z,11.40
2023-05-21T00:29:46.920Z,11.30
2023-05-21T00:32:13.971Z,11.35
2023-05-21T00:34:41.721Z,11.50
2023-05-21T00:37:10.193Z,10.27
2023-05-21T00:39:37.272Z,11.25
2023-05-21T00:42:04.593Z,9.48
2023-05-21T00:44:34.579Z,10.52
2023-05-21T00:47:02.697Z,12.50
2023-05-21T00:49:30.917Z,13.13
2023-05-21T00:51:58.087Z,10.40
2023-05-21T00:54:25.271Z,11.50
2023-05-21T00:56:52.408Z,14.40
2023-05-21T00:59:19.665Z,11.45
2023-05-21T01:01:46.746Z,11.70
2023-05-21T01:04:13.996Z,12.43
2023-05-21T01:06:40.909Z,12.13
2023-05-21T01:09:09.473Z,10.48
2023-05-21T01:11:43.718Z,11.88
2023-05-21T01:14:13.012Z,11.65
2023-05-21T01:16:42.546Z,11.38
2023-05-21T01:19:14.376Z,10.90
2023-05-21T01:21:45.492Z,10.25
2023-05-21T01:24:12.437Z,10.43
2023-05-21T01:26:41.474Z,11.00
2023-05-21T01:29:13.491Z,13.57
2023-05-21T01:32:07.393Z,11.88
2023-05-21T01:35:13.474Z,11.45
2023-05-21T01:38:05.139Z,11.30
2023-05-21T01:40:38.585Z,12.27
2023-05-21T01:43:07.393Z,12.68
2023-05-21T01:45:39.086Z,10.38
2023-05-21T01:48:08.095Z,10.70
2023-05-21T01:50:37.295Z,12.35
2023-05-21T01:53:06.087Z,14.23
2023-05-21T01:55:33.612Z,11.10
2023-05-21T01:58:02.489Z,11.80
2023-05-21T02:00:31.119Z,10.48
2023-05-21T02:02:59.015Z,12.30
2023-05-21T02:05:26.386Z,10.27
2023-05-21T02:07:55.140Z,11.25
2023-05-21T02:10:22.928Z,11.98
2023-05-21T02:12:49.952Z,10.82
2023-05-21T02:15:18.294Z,11.10
2023-05-21T02:17:46.784Z,10.52
2023-05-21T02:20:14.737Z,12.55
2023-05-21T02:22:48.086Z,10.48
2023-05-21T02:25:18.516Z,10.50
2023-05-21T02:27:47.129Z,12.13
2023-05-21T02:30:15.816Z,11.50
2023-05-21T02:32:43.828Z,10.65
2023-05-21T02:35:12.729Z,11.48
2023-05-21T02:37:40.806Z,11.95
2023-05-21T02:40:10.349Z,12.88
2023-05-21T02:42:40.267Z,11.60
2023-05-21T02:45:10.446Z,11.02
2023-05-21T02:47:39.381Z,12.25
2023-05-21T02:50:09.193Z,10.18
2023-05-21T02:52:43.457Z,11.73
2023-05-21T02:55:10.779Z,10.50
2023-05-21T02:57:37.801Z,13.25
2023-05-21T03:00:09.029Z,14.20
2023-05-21T03:02:38.696Z,11.02
2023-05-21T03:05:06.716Z,11.75
2023-05-21T03:07:34.166Z,10.40
2023-05-21T03:10:01.724Z,10.38
2023-05-21T03:12:29.974Z,10.65
2023-05-21T03:14:57.033Z,11.23
2023-05-21T03:17:24.149Z,10.85
2023-05-21T03:19:51.440Z,9.40
2023-05-21T03:22:20.232Z,11.07
2023-05-21T03:24:47.279Z,12.93
2023-05-21T03:27:14.939Z,11.65
2023-05-21T03:29:44.848Z,14.32
2023-05-21T03:32:13.656Z,11.77
2023-05-21T03:34:41.423Z,11.93
2023-05-21T03:37:08.480Z,13.65
2023-05-21T03:39:35.515Z,12.30
2023-05-21T03:42:03.252Z,10.43
2023-05-21T03:44:40.352Z,12.15
2023-05-21T03:47:39.365Z,12.63
2023-05-21T03:50:09.674Z,11.45
2023-05-21T03:52:37.161Z,11.70
2023-05-21T03:55:05.192Z,11.25
2023-05-21T03:57:32.242Z,16.13
2023-05-21T03:59:59.581Z,13.50
2023-05-21T04:02:27.649Z,11.93
2023-05-21T04:04:56.241Z,11.80
2023-05-21T04:07:24.842Z,12.48
2023-05-21T04:09:51.890Z,13.00
2023-05-21T04:12:20.479Z,11.82
2023-05-21T04:14:48.170Z,13.68
2023-05-21T04:17:15.276Z,14.02
2023-05-21T04:19:42.255Z,11.88
2023-05-21T04:22:12.277Z,11.65
2023-05-21T04:24:39.634Z,11.00
2023-05-21T04:27:27.848Z,12.30
2023-05-21T04:29:55.000Z,13.45
2023-05-21T04:32:24.453Z,13.07
2023-05-21T04:34:51.439Z,13.35
2023-05-21T04:37:18.684Z,11.30
2023-05-21T04:39:47.110Z,13.95
2023-05-21T04:42:14.467Z,13.75
2023-05-21T04:44:44.729Z,13.60
2023-05-21T04:47:15.115Z,12.95
2023-05-21T04:49:42.492Z,13.93
2023-05-21T04:52:09.448Z,13.68
2023-05-21T04:54:39.138Z,11.98
2023-05-21T04:57:06.787Z,10.98
2023-05-21T04:59:35.318Z,14.13
2023-05-21T05:02:02.388Z,11.98
2023-05-21T05:04:29.561Z,12.05
2023-05-21T05:06:56.734Z,10.77
2023-05-21T05:09:25.436Z,12.15
2023-05-21T05:11:53.058Z,11.75
2023-05-21T05:14:20.177Z,13.82
2023-05-21T05:16:48.493Z,10.35
2023-05-21T05:19:16.497Z,10.18
2023-05-21T05:21:44.677Z,12.10
2023-05-21T05:24:12.257Z,12.85
2023-05-21T05:26:39.192Z,11.00
2023-05-21T05:29:06.228Z,11.27
2023-05-21T05:31:33.746Z,12.20
2023-05-21T05:34:01.167Z,11.43
2023-05-21T05:36:29.906Z,12.20
2023-05-21T05:38:57.193Z,12.77
2023-05-21T05:41:25.295Z,11.55
2023-05-21T05:43:53.643Z,12.75
2023-05-21T05:46:22.494Z,13.00
2023-05-21T05:48:51.128Z,11.68
2023-05-21T05:51:18.485Z,13.48
2023-05-21T05:53:47.965Z,13.73
2023-05-21T05:56:17.335Z,10.15
2023-05-21T05:58:45.439Z,10.93
2023-05-21T06:01:15.684Z,12.35
2023-05-21T06:03:42.782Z,13.98
2023-05-21T06:06:15.512Z,11.30
2023-05-21T06:08:42.958Z,12.63
2023-05-21T06:11:11.553Z,11.00
2023-05-21T06:13:39.343Z,12.88
2023-05-21T06:16:07.869Z,12.63
2023-05-21T06:18:36.681Z,13.52
2023-05-21T06:21:04.537Z,12.02
2023-05-21T06:23:32.895Z,13.48
2023-05-21T06:26:02.541Z,11.55
2023-05-21T06:28:29.887Z,11.20
2023-05-21T06:30:58.299Z,11.50
2023-05-21T06:33:27.786Z,11.45
2023-05-21T06:35:56.256Z,13.50
2023-05-21T06:38:24.754Z,10.40
2023-05-21T06:40:53.234Z,10.70
2023-05-21T06:43:38.314Z,11.95
2023-05-21T06:46:24.454Z,12.38
2023-05-21T06:48:53.052Z,13.20
2023-05-21T06:51:21.031Z,11.32
2023-05-21T06:53:48.579Z,17.42
2023-05-21T06:56:17.131Z,10.73
2023-05-21T06:58:44.520Z,10.77
2023-05-21T07:01:12.257Z,11.35
2023-05-21T07:03:39.636Z,10.77
2023-05-21T07:06:08.545Z,12.75
2023-05-21T07:08:35.507Z,10.55
2023-05-21T07:11:03.785Z,14.00
2023-05-21T07:13:31.501Z,10.95
2023-05-21T07:15:58.847Z,12.02
2023-05-21T07:18:26.963Z,10.73
2023-05-21T07:20:54.557Z,10.68
2023-05-21T07:23:21.775Z,13.38
2023-05-21T07:25:48.804Z,10.50
2023-05-21T07:28:15.946Z,11.57
2023-05-21T07:30:43.999Z,11.07
2023-05-21T07:33:14.841Z,10.88
2023-05-21T07:35:42.478Z,11.88
2023-05-21T07:38:09.843Z,13.77
2023-05-21T07:40:38.309Z,11.75
2023-05-21T07:43:06.076Z,10.77
2023-05-21T07:45:35.037Z,10.30
2023-05-21T07:48:03.054Z,10.02
2023-05-21T07:50:32.777Z,11.55
2023-05-21T07:53:00.270Z,12.13
2023-05-21T07:55:27.556Z,12.23
2023-05-21T07:57:55.112Z,9.85
2023-05-21T08:00:28.848Z,10.57
2023-05-21T08:02:57.839Z,10.05
2023-05-21T08:05:26.321Z,9.57
2023-05-21T08:07:53.455Z,8.90
2023-05-21T08:10:21.478Z,8.85
2023-05-21T08:12:51.290Z,9.48
2023-05-21T08:15:19.140Z,9.73
2023-05-21T08:17:46.709Z,12.85
2023-05-21T08:20:15.451Z,11.65
2023-05-21T08:22:44.791Z,9.98
2023-05-21T08:25:13.770Z,10.20
2023-05-21T08:27:41.258Z,8.80
2023-05-21T08:30:11.757Z,13.23
2023-05-21T08:32:39.179Z,12.43
2023-05-21T08:35:07.638Z,12.68
2023-05-21T08:37:50.504Z,11.45
2023-05-21T08:40:25.354Z,11.82
2023-05-21T08:42:52.678Z,9.38
2023-05-21T08:45:38.549Z,7.50
2023-05-21T08:48:07.203Z,10.60
2023-05-21T08:50:35.933Z,7.93
2023-05-21T08:53:19.918Z,8.55
2023-05-21T08:55:56.436Z,10.30
2023-05-21T08:58:25.796Z,8.10
2023-05-21T09:00:55.436Z,9.55
2023-05-21T09:03:26.942Z,8.43
2023-05-21T09:05:55.403Z,8.13
2023-05-21T09:08:32.956Z,8.98
2023-05-21T09:11:03.959Z,7.95
2023-05-21T09:13:46.640Z,8.95
2023-05-21T09:16:21.893Z,7.53
2023-05-21T09:18:49.748Z,7.55
2023-05-21T09:21:31.823Z,9.40
2023-05-21T09:24:04.246Z,9.18
2023-05-21T09:26:31.560Z,10.98
2023-05-21T09:29:04.451Z,8.38
2023-05-21T09:31:33.178Z,8.65
2023-05-21T09:34:01.448Z,8.25
2023-05-21T09:36:29.828Z,8.13
2023-05-21T09:38:58.657Z,9.07
2023-05-21T09:41:34.065Z,10.93
2023-05-21T09:44:02.967Z,9.02
2023-05-21T09:46:42.793Z,8.30
2023-05-21T09:49:26.801Z,9.40
2023-05-21T09:51:59.412Z,7.75
2023-05-21T09:54:31.718Z,10.23
2023-05-21T09:57:02.689Z,8.77
2023-05-21T09:59:37.445Z,10.13
2023-05-21T10:02:16.790Z,9.75
2023-05-21T10:04:48.115Z,7.28
2023-05-21T10:07:26.145Z,8.27
2023-05-21T10:09:56.330Z,7.50
2023-05-21T10:12:27.607Z,7.57
2023-05-21T10:15:04.175Z,6.97
2023-05-21T10:17:33.010Z,7.57
2023-05-21T10:20:03.462Z,8.05
2023-05-21T10:22:31.478Z,8.95
2023-05-21T10:25:02.578Z,6.68
2023-05-21T10:27:32.333Z,7.93
2023-05-21T10:30:01.778Z,7.88
2023-05-21T10:32:31.507Z,8.45
2023-05-21T10:35:01.495Z,7.95
2023-05-21T10:37:29.531Z,7.03
2023-05-21T10:39:57.327Z,6.55
2023-05-21T10:42:24.451Z,6.82
2023-05-21T10:45:01.349Z,7.38
2023-05-21T10:47:42.783Z,7.07
2023-05-21T10:50:38.479Z,6.68
2023-05-21T10:53:24.822Z,7.82
2023-05-21T10:56:22.255Z,9.15
2023-05-21T10:59:26.973Z,6.70
2023-05-21T11:01:55.550Z,8.68
2023-05-21T11:04:29.311Z,7.40
2023-05-21T11:06:58.920Z,7.97
2023-05-21T11:09:27.223Z,8.30
2023-05-21T11:11:59.153Z,9.10
2023-05-21T11:14:39.556Z,5.80
2023-05-21T11:17:06.990Z,7.55
2023-05-21T11:19:35.160Z,5.30
2023-05-21T11:22:06.798Z,7.97
2023-05-21T11:24:39.946Z,7.13
2023-05-21T11:27:07.283Z,7.80
2023-05-21T11:29:40.899Z,8.75
2023-05-21T11:32:13.968Z,6.40
2023-05-21T11:34:46.673Z,6.30
2023-05-21T11:37:18.540Z,7.90
2023-05-21T11:39:52.186Z,9.75
2023-05-21T11:42:40.093Z,6.15
2023-05-21T11:45:11.985Z,5.78
2023-05-21T11:48:03.400Z,6.93
2023-05-21T11:50:32.447Z,6.43
2023-05-21T11:53:00.854Z,7.00
2023-05-21T11:55:28.143Z,7.57
2023-05-21T11:57:55.890Z,5.93
2023-05-21T12:00:23.368Z,6.25
2023-05-21T12:03:01.257Z,6.75
2023-05-21T12:05:31.831Z,6.80
2023-05-21T12:08:09.999Z,6.78
2023-05-21T12:10:58.604Z,5.50
2023-05-21T12:13:26.499Z,6.45
2023-05-21T12:15:54.872Z,6.30
2023-05-21T12:18:27.547Z,5.68
2023-05-21T12:20:55.488Z,5.40
2023-05-21T12:23:26.401Z,7.72
2023-05-21T12:26:02.008Z,5.93
2023-05-21T12:28:29.815Z,6.28
2023-05-21T12:30:56.949Z,6.78
2023-05-21T12:33:26.197Z,6.05
2023-05-21T12:35:53.307Z,6.35
2023-05-21T12:38:20.903Z,7.20
2023-05-21T12:40:47.991Z,6.85
2023-05-21T12:43:16.439Z,6.85
2023-05-21T12:45:44.636Z,6.38
2023-05-21T12:48:12.840Z,5.68
2023-05-21T12:50:55.807Z,7.38
2023-05-21T12:53:38.475Z,6.80
2023-05-21T12:56:11.862Z,6.25
2023-05-21T12:58:39.368Z,6.70
2023-05-21T13:01:11.630Z,5.80
2023-05-21T13:03:41.548Z,6.70
2023-05-21T13:06:09.320Z,6.55
2023-05-21T13:08:36.650Z,6.45
2023-05-21T13:11:04.640Z,6.15
2023-05-21T13:13:31.568Z,6.28
2023-05-21T13:16:00.860Z,7.15
2023-05-21T13:18:28.178Z,7.95
2023-05-21T13:20:55.197Z,8.70
2023-05-21T13:23:23.440Z,8.18
2023-05-21T13:25:50.901Z,7.95
2023-05-21T13:28:18.051Z,9.10
2023-05-21T13:30:45.492Z,5.57
2023-05-21T13:33:13.454Z,7.10
2023-05-21T13:35:41.154Z,6.30
2023-05-21T13:38:08.673Z,5.80
2023-05-21T13:40:38.106Z,5.70
2023-05-21T13:43:25.613Z,5.25
2023-05-21T13:45:52.870Z,5.72
2023-05-21T13:48:20.300Z,5.72
2023-05-21T13:50:48.475Z,5.82
2023-05-21T13:53:15.748Z,5.72
2023-05-21T13:55:42.721Z,6.18
2023-05-21T13:58:09.999Z,7.43
2023-05-21T14:00:37.213Z,6.18
2023-05-21T14:03:06.855Z,6.63
2023-05-21T14:05:34.530Z,5.80
2023-05-21T14:08:01.906Z,6.38
2023-05-21T14:10:28.896Z,10.57
2023-05-21T14:13:04.293Z,6.97
2023-05-21T14:15:39.052Z,8.25
2023-05-21T14:18:08.261Z,5.65
2023-05-21T14:20:35.883Z,6.60
2023-05-21T14:23:04.706Z,6.57
2023-05-21T14:25:36.586Z,6.28
2023-05-21T14:28:13.144Z,6.43
2023-05-21T14:30:43.830Z,6.00
2023-05-21T14:33:11.893Z,8.45
2023-05-21T14:35:39.479Z,6.13
2023-05-21T14:38:06.729Z,9.25
2023-05-21T14:40:33.787Z,6.60
2023-05-21T14:43:00.881Z,8.52
2023-05-21T14:45:33.228Z,9.15
2023-05-21T14:48:00.520Z,6.40
2023-05-21T14:50:30.218Z,6.95
2023-05-21T14:52:57.368Z,8.45
2023-05-21T14:55:24.605Z,7.28
2023-05-21T14:57:56.391Z,6.57
2023-05-21T15:00:25.215Z,6.72
2023-05-21T15:02:54.031Z,7.45
2023-05-21T15:05:23.130Z,7.28
2023-05-21T15:07:50.478Z,6.70
2023-05-21T15:10:18.740Z,9.15
2023-05-21T15:12:46.430Z,6.97
2023-05-21T15:15:14.758Z,7.75
2023-05-21T15:17:41.920Z,7.15
2023-05-21T15:20:10.997Z,7.30
2023-05-21T15:22:38.803Z,7.53
2023-05-21T15:25:15.066Z,8.57
2023-05-21T15:27:44.624Z,9.18
2023-05-21T15:30:12.446Z,5.93
2023-05-21T15:32:48.696Z,7.13
2023-05-21T15:35:19.516Z,9.05
2023-05-21T15:37:49.196Z,7.38
2023-05-21T15:40:20.153Z,8.05
2023-05-21T15:42:53.464Z,5.80
2023-05-21T15:45:36.085Z,5.78
2023-05-21T15:48:07.428Z,11.25
2023-05-21T15:50:38.544Z,10.20
2023-05-21T15:53:05.833Z,8.60
2023-05-21T15:55:33.872Z,7.32
2023-05-21T15:58:02.572Z,6.40
2023-05-21T16:00:30.049Z,7.22
2023-05-21T16:03:06.821Z,13.18
2023-05-21T16:05:56.388Z,6.53
2023-05-21T16:08:25.035Z,7.23
2023-05-21T16:10:52.130Z,8.25
2023-05-21T16:13:21.755Z,8.57
2023-05-21T16:15:50.236Z,9.50
2023-05-21T16:21:23.999Z,7.80
2023-05-21T16:23:52.599Z,7.15
2023-05-21T16:26:21.792Z,7.82
2023-05-21T16:28:49.259Z,6.88
2023-05-21T16:31:16.663Z,8.60
2023-05-21T16:33:45.132Z,7.30
2023-05-21T16:36:12.456Z,8.68
2023-05-21T16:38:39.692Z,5.90
2023-05-21T16:41:09.927Z,6.88
2023-05-21T16:43:38.509Z,6.30
2023-05-21T16:46:08.679Z,7.05
2023-05-21T16:48:38.050Z,6.18
2023-05-21T16:51:09.098Z,7.78
2023-05-21T16:53:36.472Z,6.18
2023-05-21T16:56:03.703Z,8.80
2023-05-21T16:58:36.298Z,8.93
2023-05-21T17:01:04.217Z,7.70
2023-05-21T17:03:32.773Z,17.45
2023-05-21T17:06:00.139Z,10.73
2023-05-21T17:08:28.282Z,8.75
2023-05-21T17:10:55.829Z,9.90
2023-05-21T17:13:23.559Z,13.50
2023-05-21T17:15:51.747Z,7.45
2023-05-21T17:18:19.088Z,7.43
2023-05-21T17:20:46.472Z,6.40
2023-05-21T17:23:16.461Z,7.55
2023-05-21T17:25:43.818Z,9.27
2023-05-21T17:28:11.515Z,7.30
2023-05-21T17:30:39.351Z,9.30
2023-05-21T17:33:08.003Z,11.25
2023-05-21T17:35:35.624Z,9.43
2023-05-21T17:38:03.241Z,11.75
2023-05-21T17:40:30.497Z,7.85
2023-05-21T17:42:58.064Z,6.93
2023-05-21T17:45:26.339Z,8.02
2023-05-21T17:47:53.624Z,7.40
2023-05-21T17:50:20.980Z,8.88
2023-05-21T17:52:48.324Z,8.13
2023-05-21T17:55:15.554Z,9.13
2023-05-21T17:57:42.850Z,7.28
2023-05-21T18:00:10.896Z,8.95
2023-05-21T18:02:40.980Z,7.78
2023-05-21T18:05:08.908Z,8.07
2023-05-21T18:07:37.389Z,6.72
2023-05-21T18:10:09.371Z,8.15
2023-05-21T18:12:36.582Z,6.72
2023-05-21T18:15:05.139Z,9.68
2023-05-21T18:17:33.163Z,11.68
2023-05-21T18:20:00.394Z,7.20
2023-05-21T18:22:27.375Z,7.25
2023-05-21T18:24:57.079Z,7.15
2023-05-21T18:27:24.207Z,9.07
2023-05-21T18:29:52.668Z,6.82
2023-05-21T18:32:20.418Z,6.88
2023-05-21T18:34:48.749Z,7.18
2023-05-21T18:37:17.312Z,10.32
2023-05-21T18:39:44.701Z,7.35
2023-05-21T18:42:13.971Z,6.88
2023-05-21T18:44:41.788Z,6.93
2023-05-21T18:47:09.403Z,6.70
2023-05-21T18:49:36.686Z,6.75
2023-05-21T18:52:08.015Z,9.27
2023-05-21T18:54:35.336Z,6.80
2023-05-21T18:57:02.653Z,8.32
2023-05-21T18:59:31.758Z,29.70
2023-05-21T19:01:59.277Z,11.68
2023-05-21T19:04:31.309Z,11.20
2023-05-21T19:06:58.473Z,29.30
2023-05-21T19:09:25.842Z,53.15
2023-05-21T19:11:53.039Z,35.28
2023-05-21T19:14:21.256Z,14.55
2023-05-21T19:16:48.402Z,16.42
2023-05-21T19:19:15.502Z,15.65
2023-05-21T19:21:44.035Z,10.45
2023-05-21T19:24:11.276Z,12.75
2023-05-21T19:26:38.540Z,9.38
2023-05-21T19:29:05.976Z,7.43
2023-05-21T19:31:33.690Z,7.97
2023-05-21T19:34:01.015Z,6.90
2023-05-21T19:36:34.983Z,8.77
2023-05-21T19:39:10.986Z,8.98
2023-05-21T19:41:38.189Z,7.78
2023-05-21T19:44:05.312Z,8.52
2023-05-21T19:46:32.617Z,6.90
2023-05-21T19:48:59.785Z,6.85
2023-05-21T19:51:27.330Z,7.28
2023-05-21T19:53:55.720Z,6.55
2023-05-21T19:56:23.069Z,9.10
2023-05-21T19:58:51.355Z,7.32
2023-05-21T20:01:19.078Z,7.68
2023-05-21T20:03:46.847Z,6.50
2023-05-21T20:06:20.159Z,6.78
2023-05-21T20:08:49.486Z,6.13
2023-05-21T20:11:16.613Z,9.63
2023-05-21T20:13:53.631Z,8.98
2023-05-21T20:16:21.002Z,8.35
2023-05-21T20:18:48.134Z,8.38
2023-05-21T20:21:18.250Z,7.30
2023-05-21T20:23:47.796Z,8.18
2023-05-21T20:26:19.384Z,8.30
2023-05-21T20:28:46.452Z,10.05
2023-05-21T20:31:13.881Z,6.78
2023-05-21T20:33:42.065Z,7.78
2023-05-21T20:36:09.491Z,7.30
2023-05-21T20:38:38.590Z,6.70
2023-05-21T20:41:06.178Z,7.47
2023-05-21T20:43:38.916Z,7.47
2023-05-21T20:46:06.542Z,8.23
2023-05-21T20:48:35.474Z,7.15
2023-05-21T20:51:04.779Z,9.77
2023-05-21T20:53:32.314Z,6.82
2023-05-21T20:56:01.864Z,7.70
2023-05-21T20:58:29.929Z,7.20
2023-05-21T21:00:58.429Z,7.57
2023-05-21T21:03:25.574Z,6.40
2023-05-21T21:05:53.198Z,7.93
2023-05-21T21:08:25.156Z,8.55
2023-05-21T21:10:52.200Z,7.70
2023-05-21T21:13:19.429Z,8.77
2023-05-21T21:15:46.575Z,8.85
2023-05-21T21:18:14.611Z,8.20
2023-05-21T21:20:42.884Z,9.23
2023-05-21T21:23:16.845Z,7.03
2023-05-21T21:25:44.193Z,6.93
2023-05-21T21:28:11.286Z,7.40
2023-05-21T21:30:41.330Z,9.40
2023-05-21T21:33:09.113Z,8.73
2023-05-21T21:35:36.305Z,7.18
2023-05-21T21:38:05.444Z,7.30
2023-05-21T21:40:32.489Z,10.65
2023-05-21T21:42:59.657Z,8.07
2023-05-21T21:45:27.093Z,7.63
2023-05-21T21:47:54.562Z,7.15
2023-05-21T21:50:21.796Z,7.72
2023-05-21T21:52:50.396Z,9.52
2023-05-21T21:55:19.274Z,7.82
2023-05-21T21:57:46.716Z,7.75
2023-05-21T22:00:19.949Z,8.27
2023-05-21T22:02:47.117Z,8.30
2023-05-21T22:05:17.226Z,7.30
2023-05-21T22:07:48.077Z,7.18
2023-05-21T22:10:19.557Z,7.47
2023-05-21T22:12:49.525Z,12.25
2023-05-21T22:15:23.128Z,8.77
2023-05-21T22:20:18.664Z,9.55
2023-05-21T22:22:46.390Z,9.00
2023-05-21T22:25:14.660Z,7.63
2023-05-21T22:27:43.312Z,6.90
2023-05-21T22:30:11.135Z,7.78
2023-05-21T22:32:38.560Z,7.00
2023-05-21T22:35:06.475Z,10.10
2023-05-21T22:37:33.623Z,7.60
2023-05-21T22:40:00.639Z,9.20
2023-05-21T22:42:27.807Z,9.18
2023-05-21T22:44:56.472Z,7.45
2023-05-21T22:47:24.006Z,7.85
2023-05-21T22:49:53.521Z,7.72
2023-05-21T22:52:24.613Z,7.03
2023-05-21T22:54:52.919Z,7.38
2023-05-21T22:57:20.527Z,7.28
2023-05-21T22:59:47.586Z,8.27
2023-05-21T23:02:15.835Z,6.28
2023-05-21T23:04:44.644Z,6.72
2023-05-21T23:07:12.680Z,7.72
2023-05-21T23:09:39.709Z,7.93
2023-05-21T23:12:08.152Z,7.57
2023-05-21T23:14:35.186Z,7.50
2023-05-21T23:17:02.593Z,10.10
2023-05-21T23:19:29.821Z,7.68
2023-05-21T23:21:57.286Z,7.63
2023-05-21T23:24:25.392Z,7.50
2023-05-21T23:26:52.698Z,9.02
2023-05-21T23:29:19.878Z,8.05
2023-05-21T23:31:47.308Z,8.95
2023-05-21T23:34:14.677Z,6.45
2023-05-21T23:36:41.717Z,8.23
2023-05-21T23:39:09.523Z,9.15
2023-05-21T23:41:38.067Z,7.30
2023-05-21T23:44:05.271Z,9.10
2023-05-21T23:46:32.311Z,6.80
2023-05-21T23:48:59.309Z,7.88
2023-05-21T23:51:26.642Z,7.65
2023-05-21T23:53:54.230Z,7.40
2023-05-21T23:56:22.403Z,7.45
2023-05-21T23:58:50.276Z,8.20
